Time;durP1;ratioP1;P1;durP2;ratioP2;P2;SDS_P1;SDS_P2;PMS_P1;PMS_P2;Temp;Humidity;BMP_temperature;BMP_pressure;BME280_temperature;BME280_humidity;BME280_pressure;Samples;Min_cycle;Max_cycle;Signal;HPM_P1;HPM_P2
2023/10/28 00:01:12;;;;;;;31.50;15.68;;;10.60;99.90;;;;;;5053665;28;20514;-84
2023/10/28 00:03:39;;;;;;;22.70;13.25;;;10.50;99.90;;;;;;5054184;28;20045;-83
2023/10/28 00:06:04;;;;;;;26.73;14.57;;;10.50;99.90;;;;;;5053717;28;20492;-84
2023/10/28 00:08:30;;;;;;;27.52;14.63;;;10.50;99.90;;;;;;5053386;28;20056;-85
2023/10/28 00:10:56;;;;;;;30.67;17.80;;;10.50;99.90;;;;;;5054329;28;20044;-83
2023/10/28 00:13:22;;;;;;;35.03;18.45;;;10.60;99.90;;;;;;5053924;28;20412;-84
2023/10/28 00:15:47;;;;;;;35.08;19.15;;;10.50;99.90;;;;;;5053471;28;20049;-82
2023/10/28 00:18:14;;;;;;;28.45;15.25;;;10.60;99.90;;;;;;5053123;28;20056;-84
2023/10/28 00:20:41;;;;;;;31.33;17.60;;;10.50;99.90;;;;;;5053617;28;20048;-84
2023/10/28 00:23:07;;;;;;;32.38;18.02;;;10.60;99.90;;;;;;5053457;28;20139;-84
2023/10/28 00:25:33;;;;;;;30.55;18.05;;;10.60;99.90;;;;;;5070886;28;20131;-84
2023/10/28 00:27:59;;;;;;;31.13;18.83;;;10.60;99.90;;;;;;5061577;28;20075;-82
2023/10/28 00:30:26;;;;;;;29.77;18.42;;;10.60;99.90;;;;;;5053586;28;20040;-84
2023/10/28 00:33:01;;;;;;;28.25;15.57;;;10.50;99.90;;;;;;5053763;28;20051;-83
2023/10/28 00:35:28;;;;;;;36.67;20.35;;;10.60;99.90;;;;;;5047782;28;20439;-83
2023/10/28 00:37:54;;;;;;;38.75;21.63;;;10.50;99.90;;;;;;5051295;28;20083;-83
2023/10/28 00:40:20;;;;;;;29.20;16.17;;;10.50;99.90;;;;;;5053731;28;20502;-84
2023/10/28 00:42:46;;;;;;;38.45;20.60;;;10.60;99.90;;;;;;5053917;28;20127;-84
2023/10/28 00:45:13;;;;;;;36.65;18.45;;;10.60;99.90;;;;;;5036468;28;20131;-84
2023/10/28 00:47:42;;;;;;;35.85;18.60;;;10.60;99.90;;;;;;5037434;28;20049;-84
2023/10/28 00:50:10;;;;;;;36.90;20.73;;;10.60;99.90;;;;;;5052743;28;20066;-83
2023/10/28 00:52:44;;;;;;;31.45;18.95;;;10.60;99.90;;;;;;5053457;28;20052;-84
2023/10/28 00:55:11;;;;;;;39.45;21.98;;;10.60;99.90;;;;;;5053561;28;20453;-84
2023/10/28 00:57:38;;;;;;;46.85;23.98;;;10.60;99.90;;;;;;5053573;28;20060;-83
2023/10/28 01:00:08;;;;;;;39.20;21.67;;;10.60;99.90;;;;;;5053395;28;20499;-84
2023/10/28 01:02:42;;;;;;;41.00;22.25;;;10.50;99.90;;;;;;5053157;28;20048;-84
2023/10/28 01:05:11;;;;;;;46.17;24.40;;;10.50;99.90;;;;;;5053377;28;20059;-83
2023/10/28 01:07:43;;;;;;;53.60;25.00;;;10.60;99.90;;;;;;5053576;28;20055;-84
2023/10/28 01:10:09;;;;;;;43.40;23.60;;;10.50;99.90;;;;;;5053725;28;20049;-84
2023/10/28 01:12:37;;;;;;;49.03;24.85;;;10.50;99.90;;;;;;5053252;28;20487;-83
2023/10/28 01:15:04;;;;;;;48.63;25.08;;;10.50;99.90;;;;;;5052306;28;20127;-83
2023/10/28 01:17:31;;;;;;;38.13;20.27;;;10.50;99.90;;;;;;5071325;28;20110;-84
2023/10/28 01:19:57;;;;;;;44.63;23.38;;;10.60;99.90;;;;;;5053007;28;20175;-83
2023/10/28 01:22:26;;;;;;;46.53;24.50;;;10.50;99.90;;;;;;5053148;28;20538;-84
2023/10/28 01:24:52;;;;;;;52.63;25.88;;;10.50;99.90;;;;;;5052856;28;20153;-84
2023/10/28 01:27:19;;;;;;;54.40;27.13;;;10.50;99.90;;;;;;5053181;28;20178;-84
2023/10/28 01:29:46;;;;;;;53.00;26.38;;;10.50;99.90;;;;;;5053770;28;20063;-84
2023/10/28 01:32:12;;;;;;;47.67;23.55;;;10.50;99.90;;;;;;5062190;28;20052;-84
2023/10/28 01:34:50;;;;;;;50.55;26.08;;;10.50;99.90;;;;;;5058580;28;20044;-83
2023/10/28 01:37:16;;;;;;;49.25;26.90;;;10.50;99.90;;;;;;5056726;28;20052;-84
2023/10/28 01:39:51;;;;;;;45.05;22.90;;;10.60;99.90;;;;;;5056697;28;20395;-83
2023/10/28 01:42:18;;;;;;;42.03;22.60;;;10.60;99.90;;;;;;5055876;28;20092;-84
2023/10/28 01:44:45;;;;;;;41.08;24.80;;;10.50;99.90;;;;;;5056833;28;20040;-84
2023/10/28 01:47:11;;;;;;;43.20;22.33;;;10.50;99.90;;;;;;5056552;28;20547;-84
2023/10/28 01:49:38;;;;;;;54.35;27.55;;;10.60;99.90;;;;;;5056591;28;20085;-83
2023/10/28 01:52:07;;;;;;;46.90;24.77;;;10.50;99.90;;;;;;5056456;28;20423;-84
2023/10/28 01:54:34;;;;;;;48.25;25.20;;;10.50;99.90;;;;;;5056171;28;20049;-84
2023/10/28 01:57:06;;;;;;;51.28;26.35;;;10.50;99.90;;;;;;5056112;28;20403;-84
2023/10/28 01:59:36;;;;;;;47.33;23.75;;;10.50;99.90;;;;;;5055985;28;20049;-84
2023/10/28 02:02:03;;;;;;;51.47;26.52;;;10.50;99.90;;;;;;5056589;28;20048;-84
2023/10/28 02:04:29;;;;;;;54.72;27.60;;;10.50;99.90;;;;;;5056343;28;20052;-83
2023/10/28 02:06:55;;;;;;;41.95;21.88;;;10.50;99.90;;;;;;5053885;28;20045;-85
2023/10/28 02:09:20;;;;;;;41.22;22.83;;;10.50;99.90;;;;;;5053041;28;20408;-83
2023/10/28 02:11:48;;;;;;;40.88;22.10;;;10.50;99.90;;;;;;5052844;28;20052;-82
2023/10/28 02:14:13;;;;;;;46.05;23.90;;;10.50;99.90;;;;;;5052739;28;20479;-84
2023/10/28 02:16:39;;;;;;;48.10;24.73;;;10.50;99.90;;;;;;5052979;28;20093;-84
2023/10/28 02:19:05;;;;;;;43.50;24.65;;;10.50;99.90;;;;;;5053052;28;20416;-84
2023/10/28 02:21:32;;;;;;;46.25;25.52;;;10.50;99.90;;;;;;5052897;28;20102;-83
2023/10/28 02:23:58;;;;;;;47.38;23.90;;;10.60;99.90;;;;;;5062378;28;20052;-84
2023/10/28 02:26:24;;;;;;;48.42;26.00;;;10.50;99.90;;;;;;5060368;28;20052;-83
2023/10/28 02:28:49;;;;;;;42.03;22.85;;;10.40;99.90;;;;;;5062965;28;20196;-83
2023/10/28 02:31:15;;;;;;;40.40;22.77;;;10.40;99.90;;;;;;5058757;28;20048;-83
2023/10/28 02:33:40;;;;;;;40.25;21.65;;;10.40;99.90;;;;;;5055896;28;20403;-83
2023/10/28 02:36:08;;;;;;;35.20;19.25;;;10.40;99.90;;;;;;5049829;28;20053;-82
2023/10/28 02:38:34;;;;;;;49.15;23.13;;;10.40;99.90;;;;;;5048880;28;20083;-84
2023/10/28 02:41:00;;;;;;;44.20;22.30;;;10.40;99.90;;;;;;5054539;28;20462;-84
2023/10/28 02:43:26;;;;;;;42.97;23.35;;;10.40;99.90;;;;;;5055346;28;20049;-84
2023/10/28 02:45:52;;;;;;;42.38;23.10;;;10.40;99.90;;;;;;5055396;28;20075;-83
2023/10/28 02:48:18;;;;;;;37.28;20.98;;;10.40;99.90;;;;;;5055590;28;20096;-84
2023/10/28 02:50:43;;;;;;;38.33;22.40;;;10.40;99.90;;;;;;5055384;28;20132;-83
2023/10/28 02:53:09;;;;;;;36.40;20.17;;;10.40;99.90;;;;;;5055002;28;20058;-84
2023/10/28 02:55:35;;;;;;;39.63;20.77;;;10.30;99.90;;;;;;5055316;28;20102;-84
2023/10/28 02:58:01;;;;;;;37.15;22.17;;;10.30;99.90;;;;;;5055597;28;20111;-84
2023/10/28 03:00:27;;;;;;;35.72;19.95;;;10.30;99.90;;;;;;5055307;28;20107;-84
2023/10/28 03:02:55;;;;;;;39.70;20.65;;;10.20;99.90;;;;;;5046769;28;20451;-82
2023/10/28 03:05:24;;;;;;;41.42;22.95;;;10.30;99.90;;;;;;5068563;28;20047;-83
2023/10/28 03:07:53;;;;;;;41.05;22.30;;;10.20;99.90;;;;;;5071789;28;20048;-83
2023/10/28 03:10:18;;;;;;;32.38;19.77;;;10.20;99.90;;;;;;5055112;28;20139;-85
2023/10/28 03:12:44;;;;;;;38.40;20.25;;;10.20;99.90;;;;;;5055039;28;20132;-84
2023/10/28 03:15:10;;;;;;;31.88;17.70;;;10.10;99.90;;;;;;5054720;28;20063;-84
2023/10/28 03:17:39;;;;;;;38.63;20.67;;;10.30;99.90;;;;;;5055180;28;20511;-82
2023/10/28 03:20:08;;;;;;;36.80;19.25;;;10.10;99.90;;;;;;5054878;28;20040;-84
2023/10/28 03:22:36;;;;;;;30.20;16.90;;;10.10;99.90;;;;;;5053910;28;20048;-83
2023/10/28 03:25:03;;;;;;;29.63;18.48;;;10.00;99.90;;;;;;5059040;28;20472;-83
2023/10/28 03:27:29;;;;;;;29.85;16.70;;;10.10;99.90;;;;;;5056568;28;20443;-84
2023/10/28 03:29:55;;;;;;;36.85;20.00;;;10.00;99.90;;;;;;5055103;28;20051;-84
2023/10/28 03:32:21;;;;;;;36.28;19.23;;;10.00;99.90;;;;;;5055458;28;20040;-84
2023/10/28 03:34:47;;;;;;;32.58;18.73;;;10.00;99.90;;;;;;5072412;28;20404;-84
2023/10/28 03:37:13;;;;;;;32.90;19.30;;;10.00;99.90;;;;;;5054654;28;20055;-84
2023/10/28 03:39:39;;;;;;;31.23;17.65;;;10.00;99.90;;;;;;5054971;28;20048;-84
2023/10/28 03:42:07;;;;;;;33.90;17.92;;;9.90;99.90;;;;;;5054783;28;20123;-84
2023/10/28 03:44:33;;;;;;;28.48;16.10;;;10.00;99.90;;;;;;5054573;28;20048;-85
2023/10/28 03:46:59;;;;;;;34.03;19.45;;;10.00;99.90;;;;;;5054713;28;20056;-83
2023/10/28 03:49:25;;;;;;;33.17;17.92;;;10.00;99.90;;;;;;5054404;28;20041;-84
2023/10/28 03:51:51;;;;;;;30.20;17.35;;;9.90;99.90;;;;;;5053750;28;20093;-83
2023/10/28 03:54:17;;;;;;;42.05;18.45;;;9.90;99.90;;;;;;5053468;28;20128;-83
2023/10/28 03:56:42;;;;;;;33.50;18.77;;;9.90;99.90;;;;;;5054198;28;20514;-84
2023/10/28 03:59:08;;;;;;;33.88;18.00;;;9.90;99.90;;;;;;5054000;28;20047;-81
2023/10/28 04:01:33;;;;;;;36.50;18.85;;;9.90;99.90;;;;;;5054228;28;20491;-83
2023/10/28 04:03:59;;;;;;;32.83;17.55;;;9.90;99.90;;;;;;5054246;28;20048;-84
2023/10/28 04:06:25;;;;;;;29.77;17.00;;;9.90;99.90;;;;;;5053942;28;20047;-83
2023/10/28 04:08:51;;;;;;;36.58;20.70;;;10.00;99.90;;;;;;5053936;28;20503;-84
2023/10/28 04:11:16;;;;;;;34.08;19.63;;;9.90;99.90;;;;;;5053812;28;20059;-82
2023/10/28 04:13:42;;;;;;;32.88;20.58;;;9.90;99.90;;;;;;5053968;28;20098;-84
2023/10/28 04:16:08;;;;;;;32.80;19.20;;;9.90;99.90;;;;;;5053557;28;20135;-84
2023/10/28 04:18:34;;;;;;;30.15;17.80;;;9.90;99.90;;;;;;5053633;28;20127;-84
2023/10/28 04:21:00;;;;;;;35.15;19.70;;;9.90;99.90;;;;;;5058174;28;20111;-84
2023/10/28 04:23:26;;;;;;;30.75;18.30;;;9.90;99.90;;;;;;5057013;28;20449;-82
2023/10/28 04:25:52;;;;;;;33.60;19.02;;;10.00;99.90;;;;;;5070623;28;20136;-84
2023/10/28 04:28:18;;;;;;;41.47;20.35;;;10.00;99.90;;;;;;5064874;28;20049;-84
2023/10/28 04:30:53;;;;;;;39.47;19.90;;;10.00;99.90;;;;;;5053408;28;20041;-84
2023/10/28 04:33:19;;;;;;;33.20;18.20;;;10.00;99.90;;;;;;5053492;28;20041;-84
2023/10/28 04:35:44;;;;;;;34.75;20.08;;;10.00;99.90;;;;;;5053683;28;20110;-84
2023/10/28 04:38:10;;;;;;;33.47;18.95;;;10.00;99.90;;;;;;5053562;28;20491;-84
2023/10/28 04:40:37;;;;;;;31.30;18.80;;;10.00;99.90;;;;;;5050698;28;20471;-84
2023/10/28 04:43:04;;;;;;;36.75;19.58;;;10.00;99.90;;;;;;5045519;28;20044;-85
2023/10/28 04:45:31;;;;;;;35.97;20.17;;;10.00;99.90;;;;;;5033894;28;20492;-83
2023/10/28 04:47:56;;;;;;;35.72;18.33;;;10.00;99.90;;;;;;5033800;28;20102;-83
2023/10/28 04:50:22;;;;;;;40.15;21.02;;;10.00;99.90;;;;;;5033576;28;20048;-83
2023/10/28 04:52:48;;;;;;;33.50;19.23;;;10.10;99.90;;;;;;5050516;28;20048;-84
2023/10/28 04:55:14;;;;;;;33.45;20.02;;;10.10;99.90;;;;;;5053579;28;20055;-83
2023/10/28 04:57:40;;;;;;;41.13;20.60;;;10.00;99.90;;;;;;5053625;28;20045;-84
2023/10/28 05:00:07;;;;;;;34.92;21.35;;;10.10;99.90;;;;;;5053492;28;20182;-85
2023/10/28 05:02:34;;;;;;;47.30;20.45;;;10.10;99.90;;;;;;5052991;28;20507;-84
2023/10/28 05:05:01;;;;;;;38.53;21.60;;;10.10;99.90;;;;;;5055632;28;20070;-84
2023/10/28 05:07:27;;;;;;;34.83;20.67;;;10.10;99.90;;;;;;5057601;28;20055;-83
2023/10/28 05:09:52;;;;;;;38.72;20.10;;;10.00;99.90;;;;;;5057232;28;20040;-85
2023/10/28 05:12:18;;;;;;;38.40;19.67;;;10.10;99.90;;;;;;5057164;28;20116;-83
2023/10/28 05:14:44;;;;;;;39.03;20.23;;;10.10;99.90;;;;;;5057194;28;20064;-85
2023/10/28 05:17:10;;;;;;;31.75;19.08;;;10.00;99.90;;;;;;5057531;28;20049;-84
2023/10/28 05:19:37;;;;;;;33.42;19.38;;;10.20;99.90;;;;;;5056472;28;20044;-83
2023/10/28 05:22:03;;;;;;;33.13;17.25;;;10.00;99.90;;;;;;5056927;28;20055;-84
2023/10/28 05:24:30;;;;;;;52.03;21.60;;;10.00;99.90;;;;;;5057068;28;20510;-85
2023/10/28 05:26:57;;;;;;;40.72;20.13;;;10.00;99.90;;;;;;5056747;28;20106;-84
2023/10/28 05:29:23;;;;;;;34.03;18.40;;;10.00;99.90;;;;;;5057461;28;20045;-84
2023/10/28 05:31:48;;;;;;;38.35;20.40;;;10.10;99.90;;;;;;5056955;28;20047;-84
2023/10/28 05:34:14;;;;;;;33.20;17.13;;;10.00;99.90;;;;;;5056637;28;20052;-84
2023/10/28 05:36:39;;;;;;;39.50;21.05;;;10.00;99.90;;;;;;5040464;28;20090;-84
2023/10/28 05:39:07;;;;;;;33.75;18.02;;;10.00;99.90;;;;;;5056971;28;20052;-84
2023/10/28 05:41:33;;;;;;;40.90;20.83;;;10.00;99.90;;;;;;5056395;28;20040;-84
2023/10/28 05:43:58;;;;;;;40.65;21.17;;;10.10;99.90;;;;;;5056548;28;20189;-84
2023/10/28 05:46:24;;;;;;;38.55;21.45;;;10.00;99.90;;;;;;5056535;28;20123;-84
2023/10/28 05:48:50;;;;;;;38.03;21.35;;;10.00;99.90;;;;;;5056663;28;20044;-83
2023/10/28 05:51:16;;;;;;;35.22;19.38;;;10.00;99.90;;;;;;5056536;28;20563;-84
2023/10/28 05:53:42;;;;;;;42.47;21.00;;;10.10;99.90;;;;;;5056858;28;20044;-84
2023/10/28 05:56:07;;;;;;;36.70;20.70;;;10.10;99.90;;;;;;5056555;28;20128;-85
2023/10/28 05:58:33;;;;;;;41.00;19.65;;;10.00;99.90;;;;;;5056720;28;20049;-85
2023/10/28 06:00:59;;;;;;;40.72;19.92;;;10.00;99.90;;;;;;5056289;28;20040;-82
2023/10/28 06:03:28;;;;;;;38.08;19.92;;;10.00;99.90;;;;;;5039803;28;20084;-85
2023/10/28 06:05:57;;;;;;;36.45;20.15;;;10.10;99.90;;;;;;5056590;28;20044;-84
2023/10/28 06:08:22;;;;;;;33.17;20.05;;;10.10;99.90;;;;;;5055445;28;20595;-84
2023/10/28 06:10:48;;;;;;;38.50;20.42;;;10.10;99.90;;;;;;5056150;28;20123;-84
2023/10/28 06:13:15;;;;;;;34.65;19.15;;;10.10;99.90;;;;;;5049166;28;20059;-85
2023/10/28 06:15:44;;;;;;;30.73;19.40;;;10.10;99.90;;;;;;5054748;28;20057;-85
2023/10/28 06:18:10;;;;;;;37.10;19.42;;;10.10;99.90;;;;;;5055926;28;20044;-84
2023/10/28 06:20:35;;;;;;;35.47;18.45;;;10.10;99.90;;;;;;5056152;28;20454;-84
2023/10/28 06:23:03;;;;;;;32.85;17.85;;;10.10;99.90;;;;;;5055647;28;20072;-84
2023/10/28 06:25:29;;;;;;;35.05;18.30;;;10.10;99.90;;;;;;5073043;28;20052;-84
2023/10/28 06:27:55;;;;;;;38.97;18.73;;;10.20;99.90;;;;;;5072596;28;20048;-84
2023/10/28 06:30:20;;;;;;;35.63;17.27;;;10.10;99.90;;;;;;5050496;28;20036;-84
2023/10/28 06:32:46;;;;;;;32.42;17.65;;;10.10;99.90;;;;;;5046267;28;20090;-83
2023/10/28 06:35:13;;;;;;;31.10;16.38;;;10.10;99.90;;;;;;5055761;28;20052;-84
2023/10/28 06:37:39;;;;;;;31.20;15.18;;;10.20;99.90;;;;;;5055944;28;20055;-84
2023/10/28 06:40:09;;;;;;;29.58;16.50;;;10.20;99.90;;;;;;5055297;28;20119;-83
2023/10/28 06:42:35;;;;;;;25.20;15.40;;;10.20;99.90;;;;;;5055635;28;20447;-84
2023/10/28 06:45:01;;;;;;;30.85;15.90;;;10.20;99.90;;;;;;5055556;28;20106;-85
2023/10/28 06:47:26;;;;;;;26.55;16.17;;;10.20;99.90;;;;;;5053784;28;20044;-83
2023/10/28 06:49:52;;;;;;;27.80;14.65;;;10.20;99.90;;;;;;5051762;28;20207;-84
2023/10/28 06:52:18;;;;;;;27.02;14.85;;;10.20;99.90;;;;;;5055894;28;20045;-84
2023/10/28 06:54:43;;;;;;;31.90;14.88;;;10.30;99.90;;;;;;5055286;28;20048;-84
2023/10/28 06:57:09;;;;;;;28.23;14.63;;;10.20;99.90;;;;;;5056030;28;20067;-84
2023/10/28 06:59:37;;;;;;;29.05;14.43;;;10.30;99.90;;;;;;5055185;28;20048;-85
2023/10/28 07:02:02;;;;;;;26.70;14.32;;;10.20;99.90;;;;;;5055294;28;20068;-84
2023/10/28 07:04:28;;;;;;;26.13;14.32;;;10.30;99.90;;;;;;5055033;28;20055;-85
2023/10/28 07:06:54;;;;;;;24.23;12.13;;;10.30;99.90;;;;;;5055100;28;20407;-85
2023/10/28 07:09:20;;;;;;;20.08;12.52;;;10.30;99.90;;;;;;5054955;28;20048;-83
2023/10/28 07:11:46;;;;;;;21.27;12.20;;;10.30;99.90;;;;;;5053229;28;20060;-84
2023/10/28 07:14:12;;;;;;;21.27;13.15;;;10.30;99.90;;;;;;5054942;28;20045;-84
2023/10/28 07:16:39;;;;;;;25.10;11.77;;;10.30;99.90;;;;;;5057960;28;20519;-84
2023/10/28 07:19:04;;;;;;;22.88;12.25;;;10.30;99.90;;;;;;5061379;28;20405;-84
2023/10/28 07:21:30;;;;;;;22.35;11.32;;;10.30;99.90;;;;;;5071463;28;20488;-82
2023/10/28 07:23:56;;;;;;;17.73;11.15;;;10.30;99.90;;;;;;5057380;28;20578;-85
2023/10/28 07:26:22;;;;;;;19.92;11.65;;;10.40;99.90;;;;;;5055260;28;20084;-84
2023/10/28 07:28:48;;;;;;;21.30;11.18;;;10.40;99.90;;;;;;5054660;28;20045;-84
2023/10/28 07:31:16;;;;;;;22.98;11.80;;;10.40;99.90;;;;;;5054760;28;20052;-84
2023/10/28 07:33:41;;;;;;;17.98;10.48;;;10.40;99.90;;;;;;5054277;28;20060;-84
2023/10/28 07:36:08;;;;;;;24.02;10.73;;;10.40;99.90;;;;;;5054362;28;20048;-84
2023/10/28 07:38:33;;;;;;;20.25;9.63;;;10.40;99.90;;;;;;5054622;28;20037;-83
2023/10/28 07:40:59;;;;;;;16.50;10.52;;;10.40;99.90;;;;;;5054371;28;20046;-84
2023/10/28 07:43:26;;;;;;;19.83;9.68;;;10.40;99.90;;;;;;5053739;28;20158;-84
2023/10/28 07:45:52;;;;;;;17.35;10.68;;;10.50;99.90;;;;;;5054631;28;20131;-84
2023/10/28 07:48:18;;;;;;;15.35;10.25;;;10.50;99.90;;;;;;5056964;28;20082;-85
2023/10/28 07:50:43;;;;;;;14.70;8.48;;;10.50;99.90;;;;;;5065233;28;20483;-83
2023/10/28 07:53:09;;;;;;;15.77;8.60;;;10.50;99.90;;;;;;5056615;28;20051;-85
2023/10/28 07:55:39;;;;;;;15.65;8.85;;;10.50;99.90;;;;;;5054349;28;20407;-84
2023/10/28 07:58:05;;;;;;;15.57;9.30;;;10.50;99.90;;;;;;5054357;28;20052;-84
2023/10/28 08:00:31;;;;;;;15.00;9.10;;;10.60;99.90;;;;;;5054211;28;20044;-85
2023/10/28 08:02:57;;;;;;;15.98;9.02;;;10.60;99.90;;;;;;5054367;28;20106;-84
2023/10/28 08:05:24;;;;;;;13.75;8.63;;;10.60;99.90;;;;;;5054232;28;20080;-84
2023/10/28 08:07:50;;;;;;;13.18;8.18;;;10.70;99.90;;;;;;5053639;28;20055;-83
2023/10/28 08:10:22;;;;;;;13.57;7.72;;;10.60;99.90;;;;;;5054170;28;20059;-83
2023/10/28 08:12:50;;;;;;;14.35;8.15;;;10.60;99.90;;;;;;5056393;28;20174;-83
2023/10/28 08:15:19;;;;;;;12.57;8.25;;;10.70;99.90;;;;;;5057275;28;20063;-84
2023/10/28 08:17:45;;;;;;;14.65;7.70;;;10.70;99.90;;;;;;5054303;28;20084;-83
2023/10/28 08:20:11;;;;;;;13.23;7.45;;;10.70;99.90;;;;;;5053559;28;20044;-84
2023/10/28 08:22:37;;;;;;;13.93;7.65;;;10.80;99.90;;;;;;5033465;28;20512;-84
2023/10/28 08:25:04;;;;;;;13.45;7.47;;;10.70;99.90;;;;;;5053041;28;20079;-84
2023/10/28 08:27:32;;;;;;;13.07;7.57;;;10.70;99.90;;;;;;5037548;28;20131;-84
2023/10/28 08:29:58;;;;;;;12.38;7.70;;;10.70;99.90;;;;;;5053843;28;20074;-83
2023/10/28 08:32:23;;;;;;;16.80;7.40;;;10.70;99.90;;;;;;5053900;28;20055;-84
2023/10/28 08:34:50;;;;;;;12.07;7.28;;;10.80;99.90;;;;;;5053958;28;20052;-82
2023/10/28 08:37:18;;;;;;;12.80;7.93;;;10.80;99.90;;;;;;5053586;28;20397;-84
2023/10/28 08:39:44;;;;;;;12.05;7.20;;;10.80;99.90;;;;;;5053226;28;20067;-83
2023/10/28 08:42:11;;;;;;;12.48;6.82;;;10.80;99.90;;;;;;5053693;28;20044;-84
2023/10/28 08:44:38;;;;;;;14.35;6.80;;;10.80;99.90;;;;;;5053584;28;20053;-83
2023/10/28 08:47:07;;;;;;;9.77;6.30;;;10.80;99.90;;;;;;5053359;28;20462;-84
2023/10/28 08:49:39;;;;;;;11.48;6.38;;;10.80;99.90;;;;;;5053626;28;20511;-84
2023/10/28 08:52:08;;;;;;;11.65;6.85;;;10.80;99.90;;;;;;5053760;28;20491;-84
2023/10/28 08:54:35;;;;;;;11.30;5.68;;;10.80;99.90;;;;;;5053095;28;20102;-84
2023/10/28 08:57:00;;;;;;;15.25;6.03;;;10.90;99.90;;;;;;5053668;28;20045;-84
2023/10/28 08:59:27;;;;;;;12.18;5.97;;;11.00;99.90;;;;;;5053845;28;20602;-84
2023/10/28 09:01:53;;;;;;;9.00;5.82;;;11.00;99.90;;;;;;5053258;28;20043;-82
2023/10/28 09:04:21;;;;;;;9.80;5.80;;;10.90;99.90;;;;;;5042936;28;20082;-83
2023/10/28 09:06:52;;;;;;;10.45;6.05;;;11.00;99.90;;;;;;5053419;28;20057;-83
2023/10/28 09:09:20;;;;;;;9.90;5.82;;;11.00;99.90;;;;;;5058279;28;20075;-83
2023/10/28 09:11:46;;;;;;;10.35;5.63;;;11.00;99.90;;;;;;5054236;28;20048;-84
2023/10/28 09:14:12;;;;;;;11.57;5.47;;;11.00;99.90;;;;;;5053372;28;20057;-83
2023/10/28 09:16:37;;;;;;;12.70;5.60;;;11.10;99.90;;;;;;5053389;28;20055;-83
2023/10/28 09:19:04;;;;;;;9.65;4.93;;;11.10;99.90;;;;;;5053299;28;20036;-84
2023/10/28 09:21:31;;;;;;;7.88;4.82;;;11.20;99.90;;;;;;5053057;28;20072;-84
2023/10/28 09:24:03;;;;;;;11.18;5.00;;;11.20;99.90;;;;;;5045385;28;20048;-83
2023/10/28 09:26:29;;;;;;;7.88;4.60;;;11.20;99.90;;;;;;5053265;28;20044;-83
2023/10/28 09:28:55;;;;;;;7.57;4.97;;;11.30;99.90;;;;;;5053075;28;20044;-85
2023/10/28 09:31:28;;;;;;;11.15;5.40;;;11.20;99.90;;;;;;5053428;28;20446;-82
2023/10/28 09:33:55;;;;;;;12.38;5.00;;;11.20;99.90;;;;;;5053497;28;20044;-83
2023/10/28 09:36:21;;;;;;;9.10;4.45;;;11.30;99.90;;;;;;5053126;28;20495;-83
2023/10/28 09:38:47;;;;;;;10.48;4.47;;;11.30;99.90;;;;;;5053168;28;20056;-82
2023/10/28 09:41:13;;;;;;;8.60;4.45;;;11.40;99.90;;;;;;5052924;28;20048;-84
2023/10/28 09:43:39;;;;;;;10.73;4.82;;;11.40;99.90;;;;;;5053005;28;20047;-83
2023/10/28 09:46:06;;;;;;;19.23;6.47;;;11.40;99.90;;;;;;5052857;28;20048;-83
2023/10/28 09:48:37;;;;;;;11.40;5.25;;;11.40;99.90;;;;;;5034334;28;20040;-83
2023/10/28 09:51:05;;;;;;;10.25;4.38;;;11.40;99.90;;;;;;5054666;28;20070;-83
2023/10/28 09:53:35;;;;;;;11.93;4.88;;;11.40;99.90;;;;;;5056701;28;20056;-83
2023/10/28 09:56:04;;;;;;;10.27;4.57;;;11.50;99.90;;;;;;5056883;28;20131;-84
2023/10/28 09:58:38;;;;;;;8.30;4.03;;;11.50;99.90;;;;;;5056619;28;20087;-83
2023/10/28 10:01:15;;;;;;;10.68;5.10;;;11.50;99.90;;;;;;5056322;28;20083;-83
2023/10/28 10:03:56;;;;;;;11.75;4.32;;;11.50;99.90;;;;;;5056799;28;20047;-83
2023/10/28 10:06:23;;;;;;;9.77;4.35;;;11.60;99.90;;;;;;5056255;28;20058;-82
2023/10/28 10:08:50;;;;;;;8.18;4.20;;;11.60;99.90;;;;;;5039844;28;20128;-83
2023/10/28 10:11:24;;;;;;;8.55;4.18;;;11.70;99.90;;;;;;5056633;28;20098;-83
2023/10/28 10:13:50;;;;;;;10.73;4.55;;;11.70;99.90;;;;;;5056740;28;20033;-84
2023/10/28 10:16:24;;;;;;;9.68;4.55;;;11.70;99.90;;;;;;5038042;28;20068;-82
2023/10/28 10:18:53;;;;;;;6.32;3.42;;;11.70;99.90;;;;;;5033114;28;20055;-83
2023/10/28 10:21:19;;;;;;;9.68;4.53;;;11.70;99.90;;;;;;5032989;28;20042;-83
2023/10/28 10:23:50;;;;;;;12.88;4.03;;;11.70;99.90;;;;;;5032497;28;20400;-82
2023/10/28 10:26:27;;;;;;;9.10;4.20;;;11.70;99.90;;;;;;5032780;28;20050;-84
2023/10/28 10:28:58;;;;;;;9.63;4.45;;;11.70;99.90;;;;;;5032963;28;20385;-83
2023/10/28 10:31:29;;;;;;;12.25;4.88;;;11.70;99.90;;;;;;5032735;28;20416;-82
2023/10/28 10:34:02;;;;;;;11.63;4.40;;;11.70;99.90;;;;;;5032792;28;20132;-83
2023/10/28 10:36:40;;;;;;;7.72;3.47;;;11.70;99.90;;;;;;5032702;28;20348;-83
2023/10/28 10:39:16;;;;;;;13.80;4.10;;;11.70;99.90;;;;;;5032754;28;20497;-83
2023/10/28 10:42:05;;;;;;;12.20;4.60;;;11.70;99.90;;;;;;5032388;28;20045;-82
2023/10/28 10:44:34;;;;;;;8.52;3.72;;;11.70;99.90;;;;;;5032308;28;20045;-82
2023/10/28 10:47:00;;;;;;;10.57;3.95;;;11.70;99.90;;;;;;5032625;28;20133;-82
2023/10/28 10:49:26;;;;;;;14.23;4.72;;;11.70;99.90;;;;;;5032399;28;20045;-82
2023/10/28 10:51:52;;;;;;;9.40;3.67;;;11.70;99.90;;;;;;5032634;28;20057;-83
2023/10/28 10:54:18;;;;;;;9.95;4.30;;;11.60;99.90;;;;;;5032266;28;20060;-82
2023/10/28 10:56:44;;;;;;;9.35;4.05;;;11.70;99.90;;;;;;5031960;28;20045;-83
2023/10/28 10:59:10;;;;;;;23.85;4.78;;;11.70;99.90;;;;;;5032360;28;20037;-83
2023/10/28 11:01:38;;;;;;;12.25;4.35;;;11.70;99.90;;;;;;5023797;28;20382;-83
2023/10/28 11:04:04;;;;;;;10.52;4.13;;;11.70;99.90;;;;;;5031486;28;20119;-83
2023/10/28 11:06:30;;;;;;;11.02;3.90;;;11.80;99.90;;;;;;5031965;28;20104;-83
2023/10/28 11:08:56;;;;;;;11.25;4.70;;;11.70;99.90;;;;;;5032034;28;20436;-83
2023/10/28 11:11:22;;;;;;;10.52;4.25;;;11.80;99.90;;;;;;5032237;28;20092;-81
2023/10/28 11:13:48;;;;;;;13.38;4.03;;;11.80;99.90;;;;;;5031707;28;20484;-82
2023/10/28 11:16:27;;;;;;;8.18;3.75;;;11.80;99.90;;;;;;5049671;28;20084;-83
2023/10/28 11:18:54;;;;;;;7.50;3.50;;;11.90;99.90;;;;;;5051624;28;20060;-82
2023/10/28 11:21:23;;;;;;;13.35;4.25;;;11.90;99.90;;;;;;5046558;28;20098;-82
2023/10/28 11:23:50;;;;;;;8.25;3.60;;;12.00;99.90;;;;;;5048989;28;20053;-83
2023/10/28 11:26:19;;;;;;;10.43;3.80;;;12.00;99.90;;;;;;5051629;28;20043;-81
2023/10/28 11:28:45;;;;;;;14.65;3.97;;;12.00;99.90;;;;;;5051592;28;20080;-83
2023/10/28 11:31:11;;;;;;;8.25;3.80;;;12.00;99.90;;;;;;5051748;28;20455;-82
2023/10/28 11:33:37;;;;;;;9.02;3.92;;;12.10;99.90;;;;;;5051443;28;20057;-82
2023/10/28 11:36:04;;;;;;;8.27;3.72;;;12.20;99.90;;;;;;5051082;28;20098;-82
2023/10/28 11:38:33;;;;;;;8.60;3.92;;;12.20;99.90;;;;;;5051702;28;20041;-82
2023/10/28 11:41:07;;;;;;;10.02;3.30;;;12.30;99.90;;;;;;5034885;28;20447;-82
2023/10/28 11:43:37;;;;;;;8.45;3.38;;;12.30;99.90;;;;;;5051736;28;20033;-82
2023/10/28 11:46:03;;;;;;;12.70;4.35;;;12.30;99.90;;;;;;5050964;28;20089;-82
2023/10/28 11:48:29;;;;;;;12.00;4.70;;;12.30;99.90;;;;;;5052337;28;20546;-83
2023/10/28 11:50:56;;;;;;;10.15;4.32;;;12.30;99.90;;;;;;5051158;28;20056;-83
2023/10/28 11:53:29;;;;;;;9.15;3.85;;;12.30;99.90;;;;;;5050993;28;20041;-82
2023/10/28 11:55:55;;;;;;;10.02;5.00;;;12.30;99.90;;;;;;5050982;28;20091;-83
2023/10/28 11:58:26;;;;;;;8.93;4.28;;;12.40;99.90;;;;;;5050798;28;20048;-82
2023/10/28 12:00:55;;;;;;;20.08;5.22;;;12.40;99.90;;;;;;5050812;28;20041;-83
2023/10/28 12:03:21;;;;;;;8.40;3.55;;;12.40;99.90;;;;;;5050660;28;20592;-82
2023/10/28 12:05:47;;;;;;;7.88;4.07;;;12.40;99.90;;;;;;5055856;28;20183;-83
2023/10/28 12:08:13;;;;;;;9.77;4.60;;;12.40;99.90;;;;;;5053150;28;20091;-82
2023/10/28 12:10:43;;;;;;;10.70;4.88;;;12.50;99.90;;;;;;5050956;28;20144;-83
2023/10/28 12:13:18;;;;;;;33.47;17.52;;;12.50;99.90;;;;;;5050488;28;20526;-82
2023/10/28 12:15:44;;;;;;;16.05;7.90;;;12.50;99.90;;;;;;5066653;28;20056;-81
2023/10/28 12:18:10;;;;;;;7.82;3.17;;;12.50;99.90;;;;;;5051002;28;20052;-80
2023/10/28 12:20:36;;;;;;;10.30;2.97;;;12.50;99.90;;;;;;5050424;28;20095;-83
2023/10/28 12:23:02;;;;;;;8.18;2.95;;;12.50;99.90;;;;;;5052761;28;20057;-81
2023/10/28 12:25:28;;;;;;;9.73;3.67;;;12.50;99.90;;;;;;5070510;28;20123;-82
2023/10/28 12:27:54;;;;;;;7.55;3.22;;;12.60;99.90;;;;;;5068007;28;20044;-82
2023/10/28 12:30:20;;;;;;;7.32;3.00;;;12.60;99.90;;;;;;5050804;28;20052;-82
2023/10/28 12:32:48;;;;;;;10.30;3.92;;;12.60;99.90;;;;;;5050889;28;20039;-82